createdAt,value
2019-05-07T00:04:38.164Z,48.10
2019-05-07T00:09:44.134Z,48.80
2019-05-07T00:15:00.548Z,48.10
2019-05-07T00:19:58.136Z,48.20
2019-05-07T00:25:04.274Z,48.20
2019-05-07T00:30:09.613Z,48.20
2019-05-07T00:35:17.485Z,48.20
2019-05-07T00:40:45.334Z,48.30
2019-05-07T00:45:56.854Z,48.30
2019-05-07T00:51:19.560Z,48.30
2019-05-07T00:56:25.849Z,48.20
2019-05-07T01:01:32.349Z,48.30
2019-05-07T01:06:39.514Z,48.30
2019-05-07T01:11:44.877Z,48.30
2019-05-07T01:16:52.703Z,48.40
2019-05-07T01:21:59.128Z,48.40
2019-05-07T01:27:05.418Z,48.40
2019-05-07T01:32:18.634Z,48.30
2019-05-07T01:37:23.810Z,48.40
2019-05-07T01:42:29.549Z,48.50
2019-05-07T01:47:35.005Z,48.40
2019-05-07T01:52:42.684Z,48.60
2019-05-07T01:57:48.618Z,48.50
2019-05-07T02:02:59.918Z,48.40
2019-05-07T02:08:08.315Z,48.50
2019-05-07T02:13:14.587Z,48.50
2019-05-07T02:18:21.833Z,48.50
2019-05-07T02:23:28.145Z,49.30
2019-05-07T02:28:34.711Z,49.30
2019-05-07T02:33:43.435Z,49.30
2019-05-07T02:38:53.326Z,49.30
2019-05-07T02:44:00.956Z,49.30
2019-05-07T02:49:32.703Z,49.30
2019-05-07T02:55:15.500Z,49.20
2019-05-07T03:00:24.098Z,49.20
2019-05-07T03:05:29.047Z,49.20
2019-05-07T03:10:35.008Z,49.20
2019-05-07T03:15:43.237Z,49.10
2019-05-07T03:20:53.657Z,49.10
2019-05-07T03:26:13.817Z,49.10
2019-05-07T03:31:26.548Z,49.10
2019-05-07T03:36:51.125Z,49.10
2019-05-07T03:41:58.830Z,49.10
2019-05-07T03:47:23.869Z,49.10
2019-05-07T03:52:29.526Z,49.10
2019-05-07T03:57:34.769Z,49.00
2019-05-07T04:02:43.398Z,49.10
2019-05-07T04:07:47.713Z,49.10
2019-05-07T04:12:53.565Z,49.10
2019-05-07T04:17:58.960Z,49.20
2019-05-07T04:23:04.550Z,49.80
2019-05-07T04:28:16.682Z,49.20
2019-05-07T04:33:24.761Z,49.20
2019-05-07T04:38:33.350Z,49.20
2019-05-07T04:43:37.613Z,49.20
2019-05-07T04:48:44.471Z,49.30
2019-05-07T04:53:53.476Z,49.30
2019-05-07T04:58:57.568Z,49.30
2019-05-07T05:04:20.711Z,49.30
2019-05-07T05:09:12.542Z,49.40
2019-05-07T05:14:18.122Z,49.50
2019-05-07T05:19:24.010Z,49.40
2019-05-07T05:24:36.703Z,49.50
2019-05-07T05:29:43.074Z,49.60
2019-05-07T05:34:48.757Z,49.60
2019-05-07T05:40:05.547Z,49.60
2019-05-07T05:45:02.312Z,49.60
2019-05-07T05:50:09.991Z,49.60
2019-05-07T05:55:18.692Z,48.70
2019-05-07T06:00:42.311Z,48.70
2019-05-07T06:06:10.028Z,48.60
2019-05-07T06:11:36.516Z,48.60
2019-05-07T06:16:47.625Z,48.40
2019-05-07T06:22:12.798Z,48.60
2019-05-07T06:27:18.226Z,48.70
2019-05-07T06:32:23.914Z,48.60
2019-05-07T06:37:32.025Z,48.70
2019-05-07T06:42:58.615Z,48.60
2019-05-07T06:48:04.900Z,48.70
2019-05-07T06:53:11.912Z,48.60
2019-05-07T06:58:17.586Z,48.60
2019-05-07T07:03:38.963Z,48.60
2019-05-07T07:08:54.342Z,48.70
2019-05-07T07:14:02.504Z,48.60
2019-05-07T07:19:07.721Z,48.70
2019-05-07T07:24:13.956Z,48.70
2019-05-07T07:29:22.024Z,48.60
2019-05-07T07:34:29.228Z,48.60
2019-05-07T07:39:36.289Z,48.70
2019-05-07T07:44:42.571Z,48.80
2019-05-07T07:49:48.325Z,48.70
2019-05-07T07:54:55.132Z,48.60
2019-05-07T08:00:13.323Z,48.60
2019-05-07T08:05:19.006Z,48.60
2019-05-07T08:10:24.659Z,48.70
2019-05-07T08:15:32.722Z,48.60
2019-05-07T08:20:37.273Z,48.60
2019-05-07T08:25:49.081Z,48.70
2019-05-07T08:31:22.627Z,48.70
2019-05-07T08:36:28.916Z,48.60
2019-05-07T08:41:34.829Z,48.50
2019-05-07T08:47:07.589Z,48.60
2019-05-07T08:52:12.840Z,48.60
2019-05-07T08:57:18.426Z,48.50
2019-05-07T09:02:23.763Z,48.60
2019-05-07T09:07:29.166Z,48.60
2019-05-07T09:12:35.675Z,48.70
2019-05-07T09:17:42.397Z,48.60
2019-05-07T09:22:48.741Z,48.70
2019-05-07T09:27:56.503Z,48.70
2019-05-07T09:33:14.206Z,48.90
2019-05-07T09:38:19.685Z,48.80
2019-05-07T09:43:25.042Z,48.80
2019-05-07T09:48:30.905Z,48.60
2019-05-07T09:53:37.910Z,48.60
2019-05-07T09:58:43.425Z,48.50
2019-05-07T10:03:51.741Z,48.50
2019-05-07T10:08:57.357Z,48.50
2019-05-07T10:14:06.542Z,48.50
2019-05-07T10:19:12.666Z,48.40
2019-05-07T10:24:18.152Z,48.40
2019-05-07T10:29:23.678Z,48.40
2019-05-07T10:34:30.531Z,48.40
2019-05-07T10:39:36.629Z,48.30
2019-05-07T10:44:52.517Z,48.30
2019-05-07T10:50:36.252Z,48.20
2019-05-07T10:55:34.409Z,48.20
2019-05-07T11:00:42.125Z,48.30
2019-05-07T11:05:47.416Z,48.20
2019-05-07T11:10:54.257Z,48.10
2019-05-07T11:16:08.234Z,47.90
2019-05-07T11:21:14.228Z,48.00
2019-05-07T11:26:19.730Z,48.20
2019-05-07T11:31:26.200Z,48.30
2019-05-07T11:36:32.030Z,48.30
2019-05-07T11:41:51.794Z,48.30
2019-05-07T11:47:28.297Z,48.30
2019-05-07T11:52:37.720Z,48.20
2019-05-07T11:57:44.465Z,48.20
2019-05-07T12:02:51.894Z,48.10
2019-05-07T12:07:57.495Z,48.10
2019-05-07T12:13:03.369Z,48.10
2019-05-07T12:18:08.686Z,47.90
2019-05-07T12:23:14.376Z,48.00
2019-05-07T12:28:22.548Z,47.90
2019-05-07T12:33:46.490Z,47.80
2019-05-07T12:38:53.324Z,47.80
2019-05-07T12:44:02.341Z,47.70
2019-05-07T12:49:08.196Z,47.80
2019-05-07T12:54:29.491Z,47.70
2019-05-07T12:59:36.333Z,47.70
2019-05-07T13:04:42.957Z,47.70
2019-05-07T13:09:48.931Z,47.70
2019-05-07T13:14:54.783Z,47.70
2019-05-07T13:20:01.812Z,47.70
2019-05-07T13:25:07.943Z,48.30
2019-05-07T13:30:15.471Z,47.70
2019-05-07T13:35:22.822Z,48.10
2019-05-07T13:40:34.458Z,47.70
2019-05-07T13:46:12.070Z,47.70
2019-05-07T13:51:17.838Z,47.90
2019-05-07T13:56:23.509Z,47.80
2019-05-07T14:01:38.461Z,48.30
2019-05-07T14:06:45.117Z,47.80
2019-05-07T14:11:52.745Z,47.90
2019-05-07T14:16:59.366Z,47.70
2019-05-07T14:22:15.522Z,48.30
2019-05-07T14:27:12.774Z,47.40
2019-05-07T14:32:49.841Z,47.20
2019-05-07T14:38:14.596Z,47.40
2019-05-07T14:43:26.993Z,47.30
2019-05-07T14:48:36.195Z,47.40
2019-05-07T14:53:42.221Z,47.30
2019-05-07T14:58:48.618Z,47.30
2019-05-07T15:03:54.497Z,47.30
2019-05-07T15:09:00.825Z,47.20
2019-05-07T15:14:07.914Z,47.10
2019-05-07T15:19:13.832Z,47.00
2019-05-07T15:24:21.960Z,47.10
2019-05-07T15:29:27.366Z,47.20
2019-05-07T15:34:32.809Z,47.20
2019-05-07T15:39:39.525Z,47.10
2019-05-07T15:44:45.409Z,47.30
2019-05-07T15:49:50.914Z,47.20
2019-05-07T15:54:56.866Z,47.20
2019-05-07T16:00:08.816Z,47.30
2019-05-07T16:05:14.745Z,47.10
2019-05-07T16:10:20.261Z,47.20
2019-05-07T16:15:27.025Z,47.20
2019-05-07T16:20:32.688Z,47.20
2019-05-07T16:25:37.954Z,47.30
2019-05-07T16:30:43.761Z,47.10
2019-05-07T16:35:50.130Z,47.00
2019-05-07T16:40:55.713Z,46.90
2019-05-07T16:46:02.426Z,46.90
2019-05-07T16:51:08.015Z,46.90
2019-05-07T16:56:13.988Z,46.80
2019-05-07T17:01:19.851Z,46.70
2019-05-07T17:06:25.635Z,46.60
2019-05-07T17:11:32.082Z,46.40
2019-05-07T17:16:38.734Z,46.50
2019-05-07T17:21:44.605Z,46.50
2019-05-07T17:26:51.759Z,46.50
2019-05-07T17:31:57.609Z,46.60
2019-05-07T17:37:04.081Z,46.70
2019-05-07T17:42:11.815Z,46.60
2019-05-07T17:47:17.719Z,46.70
2019-05-07T17:52:22.903Z,46.80
2019-05-07T17:57:28.967Z,46.90
2019-05-07T18:02:44.449Z,46.90
2019-05-07T18:07:52.742Z,46.90
2019-05-07T18:12:58.866Z,47.00
2019-05-07T18:18:06.914Z,47.10
2019-05-07T18:23:16.925Z,47.20
2019-05-07T18:28:21.635Z,47.30
2019-05-07T18:33:42.584Z,47.30
2019-05-07T18:38:49.046Z,47.40
2019-05-07T18:44:08.920Z,47.40
2019-05-07T18:49:05.754Z,47.40
2019-05-07T18:54:13.256Z,47.30
2019-05-07T18:59:22.204Z,47.30
2019-05-07T19:04:30.276Z,47.20
2019-05-07T19:09:38.360Z,47.30
2019-05-07T19:14:44.649Z,47.30
2019-05-07T19:19:52.412Z,47.20
2019-05-07T19:24:57.994Z,48.00
2019-05-07T19:30:04.240Z,47.20
2019-05-07T19:35:12.252Z,47.20
2019-05-07T19:40:19.334Z,47.20
2019-05-07T19:45:24.904Z,47.10
2019-05-07T19:50:32.323Z,47.20
2019-05-07T19:55:55.838Z,47.10
2019-05-07T20:01:02.912Z,47.10
2019-05-07T20:06:08.862Z,47.00
2019-05-07T20:11:32.625Z,47.10
2019-05-07T20:16:38.081Z,47.00
2019-05-07T20:21:44.945Z,47.00
2019-05-07T20:26:52.649Z,47.60
2019-05-07T20:31:59.159Z,46.90
2019-05-07T20:37:05.650Z,47.10
2019-05-07T20:42:12.422Z,46.90
2019-05-07T20:47:17.645Z,46.90
2019-05-07T20:52:23.734Z,46.90
2019-05-07T20:57:32.025Z,46.80
2019-05-07T21:02:45.413Z,46.80
2019-05-07T21:07:47.077Z,46.90
2019-05-07T21:12:52.995Z,46.80
2019-05-07T21:17:58.802Z,46.80
2019-05-07T21:23:04.589Z,46.80
2019-05-07T21:28:12.125Z,46.90
2019-05-07T21:33:17.380Z,46.80
2019-05-07T21:38:23.833Z,46.80
2019-05-07T21:43:29.557Z,46.80
2019-05-07T21:48:35.599Z,46.80
2019-05-07T21:53:47.366Z,46.80
2019-05-07T21:58:56.733Z,48.20
2019-05-07T22:04:03.104Z,47.60
2019-05-07T22:09:12.810Z,47.60
2019-05-07T22:14:19.377Z,48.20
2019-05-07T22:19:26.171Z,47.50
2019-05-07T22:24:32.942Z,47.60
2019-05-07T22:29:39.181Z,47.50
2019-05-07T22:35:02.975Z,47.50
2019-05-07T22:40:07.897Z,47.50
2019-05-07T22:45:14.878Z,47.40
2019-05-07T22:50:22.473Z,47.50
2019-05-07T22:55:27.099Z,47.40
2019-05-07T23:00:36.809Z,47.40
2019-05-07T23:05:44.952Z,47.40
2019-05-07T23:10:52.460Z,47.40
2019-05-07T23:15:58.036Z,47.40
2019-05-07T23:21:04.775Z,47.50
2019-05-07T23:26:12.268Z,47.40
2019-05-07T23:31:17.577Z,47.40
2019-05-07T23:36:23.640Z,47.50
2019-05-07T23:41:52.610Z,47.40
2019-05-07T23:46:59.644Z,47.50
2019-05-07T23:52:05.518Z,47.50
2019-05-07T23:57:15.016Z,48.10
